Time;durP1;ratioP1;P1;durP2;ratioP2;P2;SDS_P1;SDS_P2;PMS_P1;PMS_P2;Temp;Humidity;BMP_temperature;BMP_pressure;BME280_temperature;BME280_humidity;BME280_pressure;Samples;Min_cycle;Max_cycle;Signal;HPM_P1;HPM_P2
2023/07/29 00:00:10;;;;;;;;;;;23.10;52.30;;;;;;1592267;73;1939;-54
2023/07/29 00:02:12;;;;;;;;;;;23.10;52.30;;;;;;1590664;73;1525;-55
2023/07/29 00:04:14;;;;;;;;;;;23.20;52.30;;;;;;1576315;73;701;-56
2023/07/29 00:06:16;;;;;;;;;;;23.10;52.40;;;;;;1587705;73;784;-54
2023/07/29 00:08:18;;;;;;;;;;;23.10;52.30;;;;;;1582992;73;1155;-54
2023/07/29 00:10:20;;;;;;;;;;;23.10;52.30;;;;;;1587266;73;681;-54
2023/07/29 00:12:21;;;;;;;;;;;23.20;52.30;;;;;;1575845;73;937;-56
2023/07/29 00:14:23;;;;;;;;;;;23.10;52.30;;;;;;1590415;73;861;-55
2023/07/29 00:16:25;;;;;;;;;;;23.10;52.30;;;;;;1587710;73;1344;-56
2023/07/29 00:18:27;;;;;;;;;;;23.20;52.30;;;;;;1585828;73;1133;-53
2023/07/29 00:20:29;;;;;;;;;;;23.20;52.30;;;;;;1589693;73;1907;-53
2023/07/29 00:22:31;;;;;;;;;;;23.20;52.30;;;;;;1573390;74;783;-56
2023/07/29 00:24:33;;;;;;;;;;;23.20;52.30;;;;;;1576432;73;850;-53
2023/07/29 00:26:35;;;;;;;;;;;23.20;52.30;;;;;;1585491;73;684;-56
2023/07/29 00:28:37;;;;;;;;;;;23.10;52.30;;;;;;1574970;73;1102;-54
2023/07/29 00:30:39;;;;;;;;;;;23.20;52.30;;;;;;1592093;73;1358;-54
2023/07/29 00:32:41;;;;;;;;;;;23.10;52.30;;;;;;1584365;73;756;-56
2023/07/29 00:34:42;;;;;;;;;;;23.10;52.30;;;;;;1584402;73;699;-56
2023/07/29 00:36:44;;;;;;;;;;;23.10;52.30;;;;;;1578482;74;707;-55
2023/07/29 00:38:46;;;;;;;;;;;23.10;52.30;;;;;;1583059;73;1176;-56
2023/07/29 00:40:48;;;;;;;;;;;23.10;52.30;;;;;;1572585;73;1966;-54
2023/07/29 00:42:50;;;;;;;;;;;23.10;52.30;;;;;;1582168;73;830;-56
2023/07/29 00:44:52;;;;;;;;;;;23.10;52.30;;;;;;1588610;73;1546;-56
2023/07/29 00:46:54;;;;;;;;;;;23.20;52.30;;;;;;1588734;73;679;-55
2023/07/29 00:48:56;;;;;;;;;;;23.20;52.30;;;;;;1577369;73;1152;-55
2023/07/29 00:50:58;;;;;;;;;;;23.20;52.30;;;;;;1574113;73;701;-56
2023/07/29 00:53:00;;;;;;;;;;;23.20;52.30;;;;;;1572358;73;723;-56
2023/07/29 00:55:02;;;;;;;;;;;23.10;52.30;;;;;;1581291;73;825;-56
2023/07/29 00:57:04;;;;;;;;;;;23.10;52.20;;;;;;1579167;74;675;-56
2023/07/29 00:59:06;;;;;;;;;;;23.10;52.30;;;;;;1572915;73;1541;-54
2023/07/29 01:01:08;;;;;;;;;;;23.10;52.30;;;;;;1590781;73;1927;-53
2023/07/29 01:03:09;;;;;;;;;;;23.10;52.30;;;;;;1582890;73;745;-56
2023/07/29 01:05:12;;;;;;;;;;;23.20;52.30;;;;;;1584360;73;770;-53
2023/07/29 01:07:15;;;;;;;;;;;23.10;52.30;;;;;;1582340;73;772;-55
2023/07/29 01:09:34;;;;;;;;;;;23.10;52.30;;;;;;1567813;73;1769;-53
2023/07/29 01:11:38;;;;;;;;;;;23.10;52.30;;;;;;1575164;73;1560;-58
2023/07/29 01:13:44;;;;;;;;;;;23.10;52.20;;;;;;1571800;74;1863;-58
2023/07/29 01:15:48;;;;;;;;;;;23.10;52.30;;;;;;1572560;73;1804;-55
2023/07/29 01:17:53;;;;;;;;;;;23.10;52.20;;;;;;1586547;73;721;-54
2023/07/29 01:20:05;;;;;;;;;;;23.10;52.20;;;;;;1574039;73;1156;-56
2023/07/29 01:22:06;;;;;;;;;;;23.10;52.20;;;;;;1581472;73;1543;-53
2023/07/29 01:24:08;;;;;;;;;;;23.20;52.20;;;;;;1588155;73;722;-56
2023/07/29 01:26:10;;;;;;;;;;;23.10;52.20;;;;;;1581497;73;1478;-54
2023/07/29 01:28:12;;;;;;;;;;;23.20;52.20;;;;;;1588340;73;1183;-53
2023/07/29 01:30:14;;;;;;;;;;;23.20;52.20;;;;;;1583289;73;783;-57
2023/07/29 01:32:17;;;;;;;;;;;23.10;52.20;;;;;;1590074;74;1095;-56
2023/07/29 01:34:33;;;;;;;;;;;23.10;52.20;;;;;;1579083;73;727;-55
2023/07/29 01:36:35;;;;;;;;;;;23.10;52.20;;;;;;1580909;73;1888;-54
2023/07/29 01:38:37;;;;;;;;;;;23.10;52.20;;;;;;1578476;73;1217;-54
2023/07/29 01:40:39;;;;;;;;;;;23.10;52.20;;;;;;1585630;73;1930;-54
2023/07/29 01:42:41;;;;;;;;;;;23.10;52.20;;;;;;1595647;73;751;-56
2023/07/29 01:44:43;;;;;;;;;;;23.10;52.20;;;;;;1592235;73;668;-56
2023/07/29 01:46:44;;;;;;;;;;;23.10;52.20;;;;;;1590765;73;666;-56
2023/07/29 01:48:46;;;;;;;;;;;23.10;52.20;;;;;;1582009;73;1152;-56
2023/07/29 01:50:48;;;;;;;;;;;23.10;52.10;;;;;;1580382;73;649;-56
2023/07/29 01:52:50;;;;;;;;;;;23.10;52.10;;;;;;1589547;74;702;-56
2023/07/29 01:54:52;;;;;;;;;;;23.10;52.10;;;;;;1581419;74;1443;-54
2023/07/29 01:56:54;;;;;;;;;;;23.10;52.20;;;;;;1587085;73;669;-54
2023/07/29 01:58:56;;;;;;;;;;;23.10;52.20;;;;;;1580251;73;1142;-56
2023/07/29 02:00:58;;;;;;;;;;;23.10;52.20;;;;;;1575852;73;1918;-54
2023/07/29 02:03:00;;;;;;;;;;;23.10;52.10;;;;;;1585321;73;692;-54
2023/07/29 02:05:02;;;;;;;;;;;23.10;52.10;;;;;;1572695;73;791;-56
2023/07/29 02:07:04;;;;;;;;;;;23.10;52.10;;;;;;1584045;73;670;-56
2023/07/29 02:09:06;;;;;;;;;;;23.10;52.10;;;;;;1594707;73;1574;-54
2023/07/29 02:11:08;;;;;;;;;;;23.10;52.10;;;;;;1575829;73;953;-53
2023/07/29 02:13:10;;;;;;;;;;;23.10;52.10;;;;;;1584466;73;673;-55
2023/07/29 02:15:12;;;;;;;;;;;23.10;52.10;;;;;;1592733;74;675;-56
2023/07/29 02:17:13;;;;;;;;;;;23.10;52.10;;;;;;1584050;73;760;-55
2023/07/29 02:19:15;;;;;;;;;;;23.10;52.10;;;;;;1582794;73;1085;-54
2023/07/29 02:21:17;;;;;;;;;;;23.10;52.10;;;;;;1586393;74;1961;-54
2023/07/29 02:23:19;;;;;;;;;;;23.20;52.10;;;;;;1587620;73;1513;-55
2023/07/29 02:25:21;;;;;;;;;;;23.10;52.10;;;;;;1592182;73;699;-56
2023/07/29 02:27:26;;;;;;;;;;;23.10;52.10;;;;;;1584822;73;734;-56
2023/07/29 02:29:26;;;;;;;;;;;23.20;52.10;;;;;;1579698;73;1605;-53
2023/07/29 02:31:28;;;;;;;;;;;23.10;52.10;;;;;;1581848;74;738;-55
2023/07/29 02:33:30;;;;;;;;;;;23.10;52.10;;;;;;1573811;74;749;-56
2023/07/29 02:35:32;;;;;;;;;;;23.10;52.00;;;;;;1583350;74;774;-56
2023/07/29 02:37:34;;;;;;;;;;;23.10;52.00;;;;;;1579852;73;1533;-53
2023/07/29 02:39:36;;;;;;;;;;;23.10;52.10;;;;;;1576137;73;1178;-54
2023/07/29 02:41:38;;;;;;;;;;;23.10;52.10;;;;;;1573217;73;1945;-54
2023/07/29 02:43:40;;;;;;;;;;;23.10;52.10;;;;;;1586640;73;748;-54
2023/07/29 02:45:42;;;;;;;;;;;23.10;52.00;;;;;;1575705;73;756;-55
2023/07/29 02:47:44;;;;;;;;;;;23.10;52.00;;;;;;1587046;74;797;-56
2023/07/29 02:49:46;;;;;;;;;;;23.10;52.10;;;;;;1580016;74;1128;-53
2023/07/29 02:51:48;;;;;;;;;;;23.10;52.00;;;;;;1580312;73;1601;-54
2023/07/29 02:53:50;;;;;;;;;;;23.10;52.00;;;;;;1580537;73;721;-53
2023/07/29 02:55:52;;;;;;;;;;;23.00;51.90;;;;;;1572461;73;809;-56
2023/07/29 02:57:54;;;;;;;;;;;23.10;52.00;;;;;;1572089;73;773;-56
2023/07/29 02:59:56;;;;;;;;;;;23.10;52.10;;;;;;1594818;73;1114;-54
2023/07/29 03:01:58;;;;;;;;;;;23.10;52.00;;;;;;1582800;73;1926;-56
2023/07/29 03:03:59;;;;;;;;;;;23.10;52.00;;;;;;1581706;73;1567;-56
2023/07/29 03:06:03;;;;;;;;;;;23.10;52.00;;;;;;1586636;73;782;-54
2023/07/29 03:08:05;;;;;;;;;;;23.10;52.00;;;;;;1577710;73;1115;-53
2023/07/29 03:10:07;;;;;;;;;;;23.10;52.00;;;;;;1574140;73;703;-54
2023/07/29 03:12:09;;;;;;;;;;;23.10;52.00;;;;;;1584711;73;703;-55
2023/07/29 03:14:10;;;;;;;;;;;23.10;52.00;;;;;;1584231;73;764;-55
2023/07/29 03:16:13;;;;;;;;;;;23.10;51.90;;;;;;1590412;73;933;-55
2023/07/29 03:18:15;;;;;;;;;;;23.10;52.00;;;;;;1589499;73;1368;-55
2023/07/29 03:20:20;;;;;;;;;;;23.10;52.00;;;;;;1591385;73;743;-55
2023/07/29 03:22:22;;;;;;;;;;;23.10;52.00;;;;;;1580203;73;1927;-55
2023/07/29 03:24:24;;;;;;;;;;;23.10;52.00;;;;;;1574859;73;706;-54
2023/07/29 03:26:26;;;;;;;;;;;23.10;52.00;;;;;;1592081;74;714;-56
2023/07/29 03:28:32;;;;;;;;;;;23.10;52.00;;;;;;1575867;74;1184;-54
2023/07/29 03:30:34;;;;;;;;;;;23.10;51.90;;;;;;1584323;73;676;-54
2023/07/29 03:32:36;;;;;;;;;;;23.10;52.00;;;;;;1589229;73;1328;-56
2023/07/29 03:34:40;;;;;;;;;;;23.10;52.00;;;;;;1576133;73;665;-55
2023/07/29 03:36:41;;;;;;;;;;;23.10;52.00;;;;;;1579374;73;835;-56
2023/07/29 03:38:44;;;;;;;;;;;23.10;51.90;;;;;;1590337;73;1136;-56
2023/07/29 03:40:46;;;;;;;;;;;23.00;51.80;;;;;;1586868;73;778;-56
2023/07/29 03:42:48;;;;;;;;;;;23.10;52.10;;;;;;1586351;73;1945;-53
2023/07/29 03:44:50;;;;;;;;;;;23.10;52.00;;;;;;1577012;73;692;-56
2023/07/29 03:46:52;;;;;;;;;;;23.10;51.90;;;;;;1584091;73;1547;-56
2023/07/29 03:48:54;;;;;;;;;;;23.10;52.00;;;;;;1585284;73;1099;-56
2023/07/29 03:50:55;;;;;;;;;;;23.10;52.00;;;;;;1588207;73;658;-56
2023/07/29 03:52:57;;;;;;;;;;;23.10;52.00;;;;;;1597061;73;695;-54
2023/07/29 03:54:59;;;;;;;;;;;23.10;51.90;;;;;;1580843;73;693;-54
2023/07/29 03:57:01;;;;;;;;;;;23.10;52.00;;;;;;1575748;73;713;-54
2023/07/29 03:59:03;;;;;;;;;;;23.00;51.90;;;;;;1584021;73;1147;-56
2023/07/29 04:01:05;;;;;;;;;;;23.10;52.00;;;;;;1589599;73;1936;-53
2023/07/29 04:03:07;;;;;;;;;;;23.10;52.00;;;;;;1574602;73;694;-56
2023/07/29 04:05:09;;;;;;;;;;;23.10;52.00;;;;;;1581085;73;765;-56
2023/07/29 04:07:11;;;;;;;;;;;23.10;52.00;;;;;;1575888;73;723;-56
2023/07/29 04:09:13;;;;;;;;;;;23.10;52.00;;;;;;1578119;73;1133;-54
2023/07/29 04:11:15;;;;;;;;;;;23.10;52.00;;;;;;1574191;73;695;-56
2023/07/29 04:13:17;;;;;;;;;;;23.00;51.80;;;;;;1576596;73;777;-54
2023/07/29 04:15:18;;;;;;;;;;;23.10;52.00;;;;;;1586355;73;1533;-54
2023/07/29 04:17:21;;;;;;;;;;;23.10;52.00;;;;;;1587557;73;751;-55
2023/07/29 04:19:23;;;;;;;;;;;23.10;52.00;;;;;;1581974;73;1141;-53
2023/07/29 04:21:25;;;;;;;;;;;23.10;51.90;;;;;;1584357;73;1923;-54
2023/07/29 04:23:26;;;;;;;;;;;23.10;52.00;;;;;;1582641;74;757;-55
2023/07/29 04:25:28;;;;;;;;;;;23.10;52.00;;;;;;1594465;73;688;-55
2023/07/29 04:27:31;;;;;;;;;;;23.10;51.90;;;;;;1581106;73;774;-54
2023/07/29 04:29:35;;;;;;;;;;;23.10;51.90;;;;;;1583714;73;1574;-56
2023/07/29 04:31:36;;;;;;;;;;;23.10;51.90;;;;;;1587413;73;1647;-54
2023/07/29 04:33:39;;;;;;;;;;;23.10;52.00;;;;;;1581537;73;684;-56
2023/07/29 04:35:41;;;;;;;;;;;23.10;51.90;;;;;;1587919;74;709;-54
2023/07/29 04:37:42;;;;;;;;;;;23.10;52.00;;;;;;1584406;74;751;-54
2023/07/29 04:39:44;;;;;;;;;;;23.10;52.00;;;;;;1586416;73;1136;-53
2023/07/29 04:41:46;;;;;;;;;;;23.10;51.90;;;;;;1585318;73;1914;-55
2023/07/29 04:43:49;;;;;;;;;;;23.10;51.90;;;;;;1577943;74;1627;-56
2023/07/29 04:45:51;;;;;;;;;;;23.10;51.90;;;;;;1588602;73;645;-55
2023/07/29 04:47:53;;;;;;;;;;;23.10;51.90;;;;;;1581512;73;698;-53
2023/07/29 04:49:55;;;;;;;;;;;23.10;51.90;;;;;;1593123;73;1115;-54
2023/07/29 04:51:57;;;;;;;;;;;23.10;51.90;;;;;;1578791;73;683;-56
2023/07/29 04:53:59;;;;;;;;;;;23.10;52.00;;;;;;1592797;73;729;-56
2023/07/29 04:56:01;;;;;;;;;;;23.10;51.90;;;;;;1577059;73;690;-56
2023/07/29 04:58:02;;;;;;;;;;;23.10;51.90;;;;;;1588391;73;1640;-55
2023/07/29 05:00:04;;;;;;;;;;;23.10;51.90;;;;;;1594758;73;752;-55
2023/07/29 05:02:06;;;;;;;;;;;23.10;52.00;;;;;;1588061;73;1930;-53
2023/07/29 05:04:08;;;;;;;;;;;23.10;51.90;;;;;;1593175;74;695;-53
2023/07/29 05:06:10;;;;;;;;;;;23.10;51.90;;;;;;1582198;73;743;-56
2023/07/29 05:08:12;;;;;;;;;;;23.10;51.90;;;;;;1573403;73;1097;-55
2023/07/29 05:10:14;;;;;;;;;;;23.10;51.90;;;;;;1573560;73;780;-55
2023/07/29 05:12:16;;;;;;;;;;;23.10;51.90;;;;;;1593639;73;1380;-56
2023/07/29 05:14:18;;;;;;;;;;;23.10;51.90;;;;;;1592916;73;778;-56
2023/07/29 05:16:20;;;;;;;;;;;23.10;51.80;;;;;;1568740;73;729;-55
2023/07/29 05:18:22;;;;;;;;;;;23.20;51.80;;;;;;1585803;73;1143;-54
2023/07/29 05:20:24;;;;;;;;;;;23.20;51.80;;;;;;1581760;73;754;-54
2023/07/29 05:22:25;;;;;;;;;;;23.10;51.80;;;;;;1580951;73;2098;-53
2023/07/29 05:24:27;;;;;;;;;;;23.10;51.80;;;;;;1596696;73;683;-55
2023/07/29 05:26:29;;;;;;;;;;;23.10;51.80;;;;;;1572581;73;1544;-55
2023/07/29 05:28:31;;;;;;;;;;;23.10;51.80;;;;;;1585294;73;1278;-55
2023/07/29 05:30:39;;;;;;;;;;;23.10;51.90;;;;;;1586333;73;766;-55
2023/07/29 05:32:37;;;;;;;;;;;23.10;51.90;;;;;;1578291;73;1595;-56
2023/07/29 05:34:39;;;;;;;;;;;23.10;51.90;;;;;;1576670;73;753;-55
2023/07/29 05:36:41;;;;;;;;;;;23.20;51.90;;;;;;1578005;73;811;-53
2023/07/29 05:38:43;;;;;;;;;;;23.20;51.90;;;;;;1573926;73;1541;-55
2023/07/29 05:40:44;;;;;;;;;;;23.10;51.80;;;;;;1582020;73;711;-57
2023/07/29 05:42:47;;;;;;;;;;;23.10;51.90;;;;;;1592779;73;1941;-57
2023/07/29 05:44:49;;;;;;;;;;;23.10;51.90;;;;;;1591617;73;640;-53
2023/07/29 05:46:51;;;;;;;;;;;23.10;51.90;;;;;;1585908;74;731;-55
2023/07/29 05:48:53;;;;;;;;;;;23.30;52.00;;;;;;1584627;73;1148;-53
2023/07/29 05:50:55;;;;;;;;;;;23.10;51.90;;;;;;1575702;73;696;-56
2023/07/29 05:52:57;;;;;;;;;;;23.20;51.90;;;;;;1586881;73;1311;-56
2023/07/29 05:54:59;;;;;;;;;;;23.10;52.00;;;;;;1572090;74;732;-54
2023/07/29 05:57:01;;;;;;;;;;;23.10;51.90;;;;;;1586118;73;691;-54
2023/07/29 05:59:02;;;;;;;;;;;23.10;51.90;;;;;;1581690;73;1131;-54
2023/07/29 06:01:04;;;;;;;;;;;23.10;52.00;;;;;;1568729;73;767;-54
2023/07/29 06:03:06;;;;;;;;;;;23.10;52.00;;;;;;1575838;74;1938;-56
2023/07/29 06:05:08;;;;;;;;;;;23.20;52.00;;;;;;1592655;73;775;-56
2023/07/29 06:07:10;;;;;;;;;;;23.10;52.00;;;;;;1579849;73;1314;-55
2023/07/29 06:09:12;;;;;;;;;;;23.10;52.00;;;;;;1576075;73;1138;-53
2023/07/29 06:11:14;;;;;;;;;;;23.10;52.10;;;;;;1592928;73;747;-57
2023/07/29 06:13:16;;;;;;;;;;;23.10;52.00;;;;;;1590097;73;638;-54
2023/07/29 06:15:21;;;;;;;;;;;23.10;52.00;;;;;;1587381;74;1034;-53
2023/07/29 06:17:21;;;;;;;;;;;23.20;52.00;;;;;;1591481;73;1462;-56
2023/07/29 06:19:23;;;;;;;;;;;23.10;52.10;;;;;;1589926;74;1073;-56
2023/07/29 06:21:25;;;;;;;;;;;23.10;52.10;;;;;;1587082;74;1341;-54
2023/07/29 06:23:27;;;;;;;;;;;23.10;52.00;;;;;;1584800;73;1935;-55
2023/07/29 06:25:29;;;;;;;;;;;23.10;52.10;;;;;;1586252;73;1105;-55
2023/07/29 06:27:31;;;;;;;;;;;23.10;52.10;;;;;;1589532;73;699;-54
2023/07/29 06:29:33;;;;;;;;;;;23.10;52.10;;;;;;1587301;73;1161;-52
2023/07/29 06:31:35;;;;;;;;;;;23.20;52.10;;;;;;1578914;73;784;-54
2023/07/29 06:33:37;;;;;;;;;;;23.10;52.10;;;;;;1577973;73;747;-54
2023/07/29 06:35:39;;;;;;;;;;;23.10;52.10;;;;;;1589653;73;1556;-55
2023/07/29 06:37:41;;;;;;;;;;;23.10;52.10;;;;;;1591332;74;687;-54
2023/07/29 06:39:43;;;;;;;;;;;23.10;52.10;;;;;;1589077;73;1147;-54
2023/07/29 06:41:45;;;;;;;;;;;23.10;52.10;;;;;;1572385;73;756;-56
2023/07/29 06:43:46;;;;;;;;;;;23.10;52.10;;;;;;1575485;73;1946;-55
2023/07/29 06:45:48;;;;;;;;;;;23.10;52.10;;;;;;1585379;73;652;-54
2023/07/29 06:47:50;;;;;;;;;;;23.20;52.10;;;;;;1577246;73;703;-54
2023/07/29 06:49:52;;;;;;;;;;;23.10;52.10;;;;;;1577512;74;1228;-53
2023/07/29 06:51:54;;;;;;;;;;;23.10;52.10;;;;;;1588002;73;682;-56
2023/07/29 06:53:56;;;;;;;;;;;23.10;52.10;;;;;;1584473;73;724;-56
2023/07/29 06:55:58;;;;;;;;;;;23.10;52.10;;;;;;1576326;73;689;-55
2023/07/29 06:58:00;;;;;;;;;;;23.10;52.10;;;;;;1575162;73;1145;-56
2023/07/29 07:00:03;;;;;;;;;;;23.10;52.10;;;;;;1588967;74;730;-56
2023/07/29 07:02:05;;;;;;;;;;;23.10;52.10;;;;;;1583061;73;706;-56
2023/07/29 07:04:07;;;;;;;;;;;23.10;52.20;;;;;;1571517;73;1528;-55
2023/07/29 07:06:09;;;;;;;;;;;23.10;52.20;;;;;;1582924;73;741;-56
2023/07/29 07:08:10;;;;;;;;;;;23.10;52.20;;;;;;1592854;73;1095;-56
2023/07/29 07:10:12;;;;;;;;;;;23.20;52.20;;;;;;1579135;73;682;-54
2023/07/29 07:12:14;;;;;;;;;;;23.10;52.20;;;;;;1571296;73;686;-55
2023/07/29 07:14:16;;;;;;;;;;;23.10;52.20;;;;;;1582445;74;715;-53
2023/07/29 07:16:18;;;;;;;;;;;23.10;52.30;;;;;;1584842;74;689;-57
2023/07/29 07:18:22;;;;;;;;;;;23.10;52.30;;;;;;1589636;73;1548;-56
2023/07/29 07:20:23;;;;;;;;;;;23.10;52.30;;;;;;1579844;73;859;-54
2023/07/29 07:22:25;;;;;;;;;;;23.10;52.30;;;;;;1594855;73;1925;-55
2023/07/29 07:24:27;;;;;;;;;;;23.10;52.30;;;;;;1584895;74;673;-54
2023/07/29 07:26:29;;;;;;;;;;;23.10;52.30;;;;;;1574658;74;609;-52
2023/07/29 07:28:31;;;;;;;;;;;23.10;52.30;;;;;;1579204;74;1179;-54
2023/07/29 07:30:33;;;;;;;;;;;23.10;52.20;;;;;;1586750;73;706;-53
2023/07/29 07:32:35;;;;;;;;;;;23.10;52.20;;;;;;1580594;73;1551;-56
2023/07/29 07:34:36;;;;;;;;;;;23.10;52.20;;;;;;1586651;73;726;-56
2023/07/29 07:36:38;;;;;;;;;;;23.10;52.30;;;;;;1592409;73;678;-54
2023/07/29 07:38:40;;;;;;;;;;;23.10;52.30;;;;;;1582574;74;1166;-54
2023/07/29 07:40:42;;;;;;;;;;;23.10;52.30;;;;;;1578777;73;751;-54
2023/07/29 07:42:44;;;;;;;;;;;23.10;52.30;;;;;;1585521;73;1927;-53
2023/07/29 07:44:46;;;;;;;;;;;23.10;52.30;;;;;;1586324;73;771;-55
2023/07/29 07:46:48;;;;;;;;;;;23.10;52.30;;;;;;1573749;73;1574;-56
2023/07/29 07:48:49;;;;;;;;;;;23.10;52.30;;;;;;1591295;73;1177;-55
2023/07/29 07:50:51;;;;;;;;;;;23.10;52.30;;;;;;1592683;73;667;-56
2023/07/29 07:52:53;;;;;;;;;;;23.10;52.30;;;;;;1573447;74;671;-54
2023/07/29 07:54:55;;;;;;;;;;;23.10;52.30;;;;;;1595021;73;873;-53
2023/07/29 07:56:57;;;;;;;;;;;23.10;52.20;;;;;;1590908;73;709;-56
2023/07/29 07:58:59;;;;;;;;;;;23.10;52.30;;;;;;1589287;73;1119;-56
2023/07/29 08:01:04;;;;;;;;;;;23.10;52.30;;;;;;1589867;73;1398;-55
2023/07/29 08:03:06;;;;;;;;;;;23.10;52.20;;;;;;1583986;73;1903;-54
2023/07/29 08:05:08;;;;;;;;;;;23.10;52.20;;;;;;1586431;73;803;-56
2023/07/29 08:07:10;;;;;;;;;;;23.20;52.10;;;;;;1590071;74;668;-54
2023/07/29 08:09:12;;;;;;;;;;;23.20;52.00;;;;;;1585796;73;1148;-55
2023/07/29 08:11:13;;;;;;;;;;;23.20;52.00;;;;;;1583319;73;688;-56
2023/07/29 08:13:15;;;;;;;;;;;23.20;52.00;;;;;;1591159;73;711;-56
2023/07/29 08:15:17;;;;;;;;;;;23.20;52.10;;;;;;1583976;73;1672;-56
2023/07/29 08:17:19;;;;;;;;;;;23.20;52.10;;;;;;1580748;73;755;-54
2023/07/29 08:19:21;;;;;;;;;;;23.20;52.10;;;;;;1578799;73;1151;-53
2023/07/29 08:21:23;;;;;;;;;;;23.20;52.00;;;;;;1578850;73;692;-56
2023/07/29 08:23:25;;;;;;;;;;;23.20;52.10;;;;;;1581703;73;1938;-54
2023/07/29 08:25:27;;;;;;;;;;;23.20;52.00;;;;;;1588789;74;723;-54
2023/07/29 08:27:29;;;;;;;;;;;23.20;52.00;;;;;;1573863;74;1541;-56
2023/07/29 08:29:31;;;;;;;;;;;23.20;52.00;;;;;;1576166;74;1169;-56
2023/07/29 08:31:33;;;;;;;;;;;23.20;52.00;;;;;;1576485;73;661;-56
2023/07/29 08:33:35;;;;;;;;;;;23.20;52.00;;;;;;1573548;73;781;-56
2023/07/29 08:35:37;;;;;;;;;;;23.20;52.00;;;;;;1582164;73;778;-54
2023/07/29 08:37:39;;;;;;;;;;;23.20;52.00;;;;;;1584908;73;698;-55
2023/07/29 08:39:41;;;;;;;;;;;23.20;52.00;;;;;;1579321;73;1147;-54
2023/07/29 08:41:53;;;;;;;;;;;23.20;52.00;;;;;;1581601;73;1568;-53
2023/07/29 08:44:06;;;;;;;;;;;23.20;51.90;;;;;;1587355;73;1928;-54
2023/07/29 08:46:08;;;;;;;;;;;23.20;51.90;;;;;;1579844;73;1956;-56
2023/07/29 08:48:11;;;;;;;;;;;23.20;51.90;;;;;;1574152;73;1121;-56
2023/07/29 08:50:13;;;;;;;;;;;23.20;51.80;;;;;;1580639;73;663;-55
2023/07/29 08:52:14;;;;;;;;;;;23.20;51.80;;;;;;1578341;73;702;-56
2023/07/29 08:54:16;;;;;;;;;;;23.20;51.80;;;;;;1575084;73;704;-54
2023/07/29 08:56:18;;;;;;;;;;;23.20;51.70;;;;;;1571413;73;1546;-56
2023/07/29 08:58:21;;;;;;;;;;;23.20;51.60;;;;;;1592688;73;1100;-54
2023/07/29 09:00:23;;;;;;;;;;;23.30;51.70;;;;;;1579269;73;768;-53
2023/07/29 09:02:24;;;;;;;;;;;23.30;51.70;;;;;;1574478;73;904;-53
2023/07/29 09:04:28;;;;;;;;;;;23.30;51.70;;;;;;1586374;73;1914;-56
2023/07/29 09:06:30;;;;;;;;;;;23.30;51.50;;;;;;1589744;73;859;-55
2023/07/29 09:08:32;;;;;;;;;;;23.30;51.50;;;;;;1579557;75;1212;-54
2023/07/29 09:10:37;;;;;;;;;;;23.30;51.40;;;;;;1575018;73;1538;-55
2023/07/29 09:12:39;;;;;;;;;;;23.30;51.50;;;;;;1576504;73;779;-58
2023/07/29 09:14:41;;;;;;;;;;;23.40;51.40;;;;;;1579783;73;592;-54
2023/07/29 09:16:43;;;;;;;;;;;23.30;51.40;;;;;;1573063;73;707;-54
2023/07/29 09:18:45;;;;;;;;;;;23.30;51.40;;;;;;1592000;74;1138;-56
2023/07/29 09:20:48;;;;;;;;;;;23.30;51.40;;;;;;1598448;72;987;-56
2023/07/29 09:22:50;;;;;;;;;;;23.30;51.40;;;;;;1574702;73;796;-56
2023/07/29 09:24:51;;;;;;;;;;;23.30;51.30;;;;;;1571929;73;1938;-56
2023/07/29 09:26:54;;;;;;;;;;;23.40;51.30;;;;;;1589925;73;718;-53
2023/07/29 09:28:57;;;;;;;;;;;23.40;51.30;;;;;;1576413;73;1173;-56
2023/07/29 09:30:59;;;;;;;;;;;23.40;51.30;;;;;;1589705;73;763;-53
2023/07/29 09:33:00;;;;;;;;;;;23.40;51.30;;;;;;1571795;73;657;-56
2023/07/29 09:35:02;;;;;;;;;;;23.40;51.30;;;;;;1570861;73;709;-56
2023/07/29 09:37:04;;;;;;;;;;;23.30;51.30;;;;;;1574933;73;734;-55
2023/07/29 09:39:08;;;;;;;;;;;23.30;51.30;;;;;;1570708;73;1502;-54
2023/07/29 09:41:10;;;;;;;;;;;23.40;51.30;;;;;;1586325;73;1818;-56
2023/07/29 09:43:12;;;;;;;;;;;23.40;51.30;;;;;;1569593;74;1947;-56
2023/07/29 09:45:15;;;;;;;;;;;23.40;51.30;;;;;;1588850;73;686;-54
2023/07/29 09:47:21;;;;;;;;;;;23.40;51.30;;;;;;1588031;73;1381;-56
2023/07/29 09:49:23;;;;;;;;;;;23.40;51.30;;;;;;1577666;73;1157;-57
2023/07/29 09:51:25;;;;;;;;;;;23.40;51.40;;;;;;1584304;73;714;-54
2023/07/29 09:53:27;;;;;;;;;;;23.40;51.40;;;;;;1585669;73;1681;-56
2023/07/29 09:55:28;;;;;;;;;;;23.40;51.40;;;;;;1588104;73;821;-57
2023/07/29 09:57:30;;;;;;;;;;;23.40;51.40;;;;;;1584063;73;709;-57
2023/07/29 09:59:35;;;;;;;;;;;23.40;51.30;;;;;;1574107;73;1117;-58
2023/07/29 10:01:37;;;;;;;;;;;23.40;51.40;;;;;;1574258;73;722;-54
2023/07/29 10:03:39;;;;;;;;;;;23.40;51.40;;;;;;1576191;74;1934;-56
2023/07/29 10:05:41;;;;;;;;;;;23.40;51.40;;;;;;1588235;74;732;-56
2023/07/29 10:07:43;;;;;;;;;;;23.40;51.40;;;;;;1580891;73;1359;-57
2023/07/29 10:09:44;;;;;;;;;;;23.40;51.40;;;;;;1584852;73;1116;-54
2023/07/29 10:11:46;;;;;;;;;;;23.20;51.30;;;;;;1576672;73;714;-56
2023/07/29 10:13:48;;;;;;;;;;;23.40;51.40;;;;;;1589546;74;668;-57
2023/07/29 10:15:50;;;;;;;;;;;23.40;51.40;;;;;;1580018;74;845;-55
2023/07/29 10:17:52;;;;;;;;;;;23.30;51.30;;;;;;1581156;73;794;-54
2023/07/29 10:19:54;;;;;;;;;;;23.30;51.40;;;;;;1589636;73;1022;-56
2023/07/29 10:21:56;;;;;;;;;;;23.40;51.40;;;;;;1584156;73;752;-58
2023/07/29 10:23:58;;;;;;;;;;;23.40;51.40;;;;;;1576698;73;1942;-57
2023/07/29 10:26:06;;;;;;;;;;;23.40;51.40;;;;;;1582919;73;694;-56
2023/07/29 10:28:08;;;;;;;;;;;23.40;51.40;;;;;;1583621;73;1131;-55
2023/07/29 10:30:13;;;;;;;;;;;23.40;51.40;;;;;;1585709;73;696;-57
2023/07/29 10:32:15;;;;;;;;;;;23.40;51.50;;;;;;1577517;73;740;-56
2023/07/29 10:34:17;;;;;;;;;;;23.40;51.50;;;;;;1574212;74;1533;-57
2023/07/29 10:36:19;;;;;;;;;;;23.40;51.40;;;;;;1592834;73;761;-57
2023/07/29 10:38:24;;;;;;;;;;;23.40;51.50;;;;;;1588039;73;1170;-55
2023/07/29 10:40:26;;;;;;;;;;;23.40;51.50;;;;;;1582232;73;823;-55
2023/07/29 10:42:28;;;;;;;;;;;23.40;51.50;;;;;;1577139;73;767;-55
2023/07/29 10:44:45;;;;;;;;;;;23.40;51.50;;;;;;1581418;73;1942;-55
2023/07/29 10:46:47;;;;;;;;;;;23.40;51.50;;;;;;1577781;73;715;-55
2023/07/29 10:48:53;;;;;;;;;;;23.30;51.60;;;;;;1581978;73;1562;-56
2023/07/29 10:50:56;;;;;;;;;;;23.40;51.50;;;;;;1581719;73;643;-54
2023/07/29 10:52:58;;;;;;;;;;;23.40;51.50;;;;;;1582398;73;1576;-56
2023/07/29 10:55:01;;;;;;;;;;;23.30;51.50;;;;;;1592106;73;719;-56
2023/07/29 10:57:03;;;;;;;;;;;23.40;51.50;;;;;;1592727;73;678;-56
2023/07/29 10:59:16;;;;;;;;;;;23.40;51.60;;;;;;1589904;74;1091;-54
2023/07/29 11:01:32;;;;;;;;;;;23.40;51.50;;;;;;1589012;74;748;-54
2023/07/29 11:03:34;;;;;;;;;;;23.40;51.60;;;;;;1588781;73;1924;-56
2023/07/29 11:05:42;;;;;;;;;;;23.40;51.60;;;;;;1590613;72;692;-54
2023/07/29 11:07:50;;;;;;;;;;;23.40;51.50;;;;;;1575697;73;666;-54
2023/07/29 11:09:56;;;;;;;;;;;23.40;51.60;;;;;;1581775;73;1123;-55
2023/07/29 11:11:58;;;;;;;;;;;23.40;51.50;;;;;;1580939;73;664;-56
2023/07/29 11:14:00;;;;;;;;;;;23.40;51.70;;;;;;1593905;72;886;-56
2023/07/29 11:16:02;;;;;;;;;;;23.40;51.60;;;;;;1583070;73;735;-57
2023/07/29 11:18:04;;;;;;;;;;;23.40;51.60;;;;;;1575812;73;1638;-56
2023/07/29 11:20:10;;;;;;;;;;;23.40;51.60;;;;;;1579880;73;673;-55
2023/07/29 11:22:10;;;;;;;;;;;23.40;51.50;;;;;;1590851;73;1193;-57
2023/07/29 11:24:12;;;;;;;;;;;23.40;51.50;;;;;;1592808;73;1944;-56
2023/07/29 11:26:14;;;;;;;;;;;23.40;51.60;;;;;;1595285;72;1419;-56
2023/07/29 11:28:16;;;;;;;;;;;23.40;51.60;;;;;;1595450;74;1127;-54
2023/07/29 11:30:17;;;;;;;;;;;23.40;51.60;;;;;;1587946;73;1428;-55
2023/07/29 11:32:19;;;;;;;;;;;23.40;51.70;;;;;;1578924;73;751;-54
2023/07/29 11:34:23;;;;;;;;;;;23.40;51.60;;;;;;1579538;73;777;-56
2023/07/29 11:36:25;;;;;;;;;;;23.30;51.70;;;;;;1582695;73;1952;-55
2023/07/29 11:38:27;;;;;;;;;;;23.40;51.60;;;;;;1581034;73;1183;-53
2023/07/29 11:40:28;;;;;;;;;;;23.40;51.60;;;;;;1575409;73;816;-54
2023/07/29 11:42:32;;;;;;;;;;;23.40;51.60;;;;;;1576345;73;765;-56
2023/07/29 11:44:34;;;;;;;;;;;23.40;51.60;;;;;;1583450;73;1938;-56
2023/07/29 11:46:35;;;;;;;;;;;23.40;51.60;;;;;;1581193;73;765;-55
2023/07/29 11:48:37;;;;;;;;;;;23.40;51.70;;;;;;1593023;73;1159;-54
2023/07/29 11:50:39;;;;;;;;;;;23.40;51.70;;;;;;1590165;73;790;-54
2023/07/29 11:52:45;;;;;;;;;;;23.30;51.70;;;;;;1577209;73;790;-57
2023/07/29 11:54:49;;;;;;;;;;;23.40;51.70;;;;;;1581613;73;684;-55
2023/07/29 11:56:51;;;;;;;;;;;23.40;51.70;;;;;;1583921;73;719;-56
2023/07/29 11:58:54;;;;;;;;;;;23.40;51.70;;;;;;1589505;74;1319;-57
2023/07/29 12:00:56;;;;;;;;;;;23.40;51.70;;;;;;1575766;73;1051;-56
2023/07/29 12:02:58;;;;;;;;;;;23.40;51.70;;;;;;1581643;73;770;-57
2023/07/29 12:05:00;;;;;;;;;;;23.40;51.80;;;;;;1589329;73;1929;-56
2023/07/29 12:07:01;;;;;;;;;;;23.40;51.70;;;;;;1586460;74;793;-56
2023/07/29 12:09:03;;;;;;;;;;;23.40;51.80;;;;;;1589922;73;1174;-56